sensor_id;sensor_type;location;lat;lon;timestamp;P1;durP1;ratioP1;P2;durP2;ratioP2
21894;SDS011;11112;51.270;7.224;2022-08-14T00:02:12;4.15;;;3.72;;
21894;SDS011;11112;51.270;7.224;2022-08-14T00:04:39;5.20;;;3.60;;
21894;SDS011;11112;51.270;7.224;2022-08-14T00:07:07;7.88;;;4.05;;
21894;SDS011;11112;51.270;7.224;2022-08-14T00:09:36;6.28;;;4.15;;
21894;SDS011;11112;51.270;7.224;2022-08-14T00:12:04;6.05;;;3.83;;
21894;SDS011;11112;51.270;7.224;2022-08-14T00:14:32;5.03;;;3.83;;
21894;SDS011;11112;51.270;7.224;2022-08-14T00:17:00;5.13;;;4.05;;
21894;SDS011;11112;51.270;7.224;2022-08-14T00:19:28;8.05;;;4.07;;
21894;SDS011;11112;51.270;7.224;2022-08-14T00:21:55;8.25;;;3.95;;
21894;SDS011;11112;51.270;7.224;2022-08-14T00:24:22;7.65;;;4.10;;
21894;SDS011;11112;51.270;7.224;2022-08-14T00:26:50;6.35;;;3.90;;
21894;SDS011;11112;51.270;7.224;2022-08-14T00:29:17;5.60;;;4.05;;
21894;SDS011;11112;51.270;7.224;2022-08-14T00:31:44;5.00;;;4.00;;
21894;SDS011;11112;51.270;7.224;2022-08-14T00:34:13;5.07;;;4.10;;
21894;SDS011;11112;51.270;7.224;2022-08-14T00:36:40;5.70;;;4.10;;
21894;SDS011;11112;51.270;7.224;2022-08-14T00:39:10;5.55;;;3.85;;
21894;SDS011;11112;51.270;7.224;2022-08-14T00:41:39;4.97;;;4.03;;
21894;SDS011;11112;51.270;7.224;2022-08-14T00:44:07;5.65;;;4.30;;
21894;SDS011;11112;51.270;7.224;2022-08-14T00:46:35;6.50;;;4.22;;
21894;SDS011;11112;51.270;7.224;2022-08-14T00:49:02;4.63;;;4.00;;
21894;SDS011;11112;51.270;7.224;2022-08-14T00:51:31;5.38;;;4.07;;
21894;SDS011;11112;51.270;7.224;2022-08-14T00:54:01;7.18;;;4.40;;
21894;SDS011;11112;51.270;7.224;2022-08-14T00:56:30;5.63;;;4.20;;
21894;SDS011;11112;51.270;7.224;2022-08-14T00:58:57;7.68;;;4.57;;
21894;SDS011;11112;51.270;7.224;2022-08-14T01:01:25;6.25;;;4.50;;
21894;SDS011;11112;51.270;7.224;2022-08-14T01:03:54;7.15;;;4.50;;
21894;SDS011;11112;51.270;7.224;2022-08-14T01:06:24;8.43;;;4.50;;
21894;SDS011;11112;51.270;7.224;2022-08-14T01:08:54;6.22;;;4.18;;
21894;SDS011;11112;51.270;7.224;2022-08-14T01:11:21;5.15;;;4.55;;
21894;SDS011;11112;51.270;7.224;2022-08-14T01:13:52;6.95;;;4.70;;
21894;SDS011;11112;51.270;7.224;2022-08-14T01:16:26;7.88;;;4.57;;
21894;SDS011;11112;51.270;7.224;2022-08-14T01:18:55;6.43;;;4.50;;
21894;SDS011;11112;51.270;7.224;2022-08-14T01:21:44;7.60;;;4.68;;
21894;SDS011;11112;51.270;7.224;2022-08-14T01:24:11;6.43;;;4.57;;
21894;SDS011;11112;51.270;7.224;2022-08-14T01:26:40;5.60;;;4.50;;
21894;SDS011;11112;51.270;7.224;2022-08-14T01:29:10;6.13;;;4.80;;
21894;SDS011;11112;51.270;7.224;2022-08-14T01:31:38;5.43;;;4.80;;
21894;SDS011;11112;51.270;7.224;2022-08-14T01:34:08;6.72;;;4.82;;
21894;SDS011;11112;51.270;7.224;2022-08-14T01:36:35;5.60;;;4.95;;
21894;SDS011;11112;51.270;7.224;2022-08-14T01:39:06;5.28;;;4.70;;
21894;SDS011;11112;51.270;7.224;2022-08-14T01:41:35;6.50;;;4.80;;
21894;SDS011;11112;51.270;7.224;2022-08-14T01:44:03;7.60;;;4.80;;
21894;SDS011;11112;51.270;7.224;2022-08-14T01:46:38;7.22;;;4.80;;
21894;SDS011;11112;51.270;7.224;2022-08-14T01:49:09;6.78;;;5.10;;
21894;SDS011;11112;51.270;7.224;2022-08-14T01:51:40;6.35;;;4.80;;
21894;SDS011;11112;51.270;7.224;2022-08-14T01:54:10;9.40;;;5.20;;
21894;SDS011;11112;51.270;7.224;2022-08-14T01:56:40;8.00;;;5.07;;
21894;SDS011;11112;51.270;7.224;2022-08-14T01:59:09;7.47;;;5.20;;
21894;SDS011;11112;51.270;7.224;2022-08-14T02:01:46;7.68;;;5.10;;
21894;SDS011;11112;51.270;7.224;2022-08-14T02:04:16;6.05;;;4.90;;
21894;SDS011;11112;51.270;7.224;2022-08-14T02:06:45;8.07;;;5.05;;
21894;SDS011;11112;51.270;7.224;2022-08-14T02:09:13;6.38;;;5.30;;
21894;SDS011;11112;51.270;7.224;2022-08-14T02:11:42;6.30;;;5.00;;
21894;SDS011;11112;51.270;7.224;2022-08-14T02:14:11;6.68;;;5.20;;
21894;SDS011;11112;51.270;7.224;2022-08-14T02:16:40;6.28;;;5.07;;
21894;SDS011;11112;51.270;7.224;2022-08-14T02:19:18;8.20;;;5.30;;
21894;SDS011;11112;51.270;7.224;2022-08-14T02:21:48;9.82;;;5.50;;
21894;SDS011;11112;51.270;7.224;2022-08-14T02:24:20;7.93;;;5.65;;
21894;SDS011;11112;51.270;7.224;2022-08-14T02:26:50;6.07;;;5.35;;
21894;SDS011;11112;51.270;7.224;2022-08-14T02:29:19;6.60;;;5.45;;
21894;SDS011;11112;51.270;7.224;2022-08-14T02:31:50;7.68;;;5.40;;
21894;SDS011;11112;51.270;7.224;2022-08-14T02:34:23;6.05;;;5.40;;
21894;SDS011;11112;51.270;7.224;2022-08-14T02:36:57;9.07;;;5.60;;
21894;SDS011;11112;51.270;7.224;2022-08-14T02:39:28;6.10;;;5.47;;
21894;SDS011;11112;51.270;7.224;2022-08-14T02:41:57;10.43;;;5.90;;
21894;SDS011;11112;51.270;7.224;2022-08-14T02:44:25;6.28;;;5.63;;
21894;SDS011;11112;51.270;7.224;2022-08-14T02:46:52;6.00;;;5.40;;
21894;SDS011;11112;51.270;7.224;2022-08-14T02:49:21;7.25;;;5.38;;
21894;SDS011;11112;51.270;7.224;2022-08-14T02:51:53;8.70;;;5.38;;
21894;SDS011;11112;51.270;7.224;2022-08-14T02:54:22;7.55;;;5.63;;
21894;SDS011;11112;51.270;7.224;2022-08-14T02:56:52;9.43;;;5.80;;
21894;SDS011;11112;51.270;7.224;2022-08-14T02:59:24;8.60;;;5.72;;
21894;SDS011;11112;51.270;7.224;2022-08-14T03:01:53;6.18;;;5.57;;
21894;SDS011;11112;51.270;7.224;2022-08-14T03:04:21;8.20;;;5.70;;
21894;SDS011;11112;51.270;7.224;2022-08-14T03:06:50;6.72;;;5.97;;
21894;SDS011;11112;51.270;7.224;2022-08-14T03:09:17;6.93;;;5.45;;
21894;SDS011;11112;51.270;7.224;2022-08-14T03:11:45;6.70;;;5.88;;
21894;SDS011;11112;51.270;7.224;2022-08-14T03:14:13;8.30;;;5.95;;
21894;SDS011;11112;51.270;7.224;2022-08-14T03:16:41;7.72;;;6.00;;
21894;SDS011;11112;51.270;7.224;2022-08-14T03:19:09;8.88;;;6.07;;
21894;SDS011;11112;51.270;7.224;2022-08-14T03:21:38;8.32;;;5.75;;
21894;SDS011;11112;51.270;7.224;2022-08-14T03:24:05;7.72;;;6.30;;
21894;SDS011;11112;51.270;7.224;2022-08-14T03:26:36;9.00;;;6.38;;
21894;SDS011;11112;51.270;7.224;2022-08-14T03:29:04;9.60;;;5.80;;
21894;SDS011;11112;51.270;7.224;2022-08-14T03:31:34;7.18;;;6.03;;
21894;SDS011;11112;51.270;7.224;2022-08-14T03:34:02;7.10;;;6.10;;
21894;SDS011;11112;51.270;7.224;2022-08-14T03:36:29;9.02;;;5.88;;
21894;SDS011;11112;51.270;7.224;2022-08-14T03:38:57;6.82;;;5.93;;
21894;SDS011;11112;51.270;7.224;2022-08-14T03:41:26;7.75;;;6.10;;
21894;SDS011;11112;51.270;7.224;2022-08-14T03:43:55;6.70;;;5.90;;
21894;SDS011;11112;51.270;7.224;2022-08-14T03:46:25;9.15;;;6.18;;
21894;SDS011;11112;51.270;7.224;2022-08-14T03:48:56;7.90;;;6.60;;
21894;SDS011;11112;51.270;7.224;2022-08-14T03:51:25;8.07;;;6.20;;
21894;SDS011;11112;51.270;7.224;2022-08-14T03:53:54;7.75;;;5.97;;
21894;SDS011;11112;51.270;7.224;2022-08-14T03:56:23;7.07;;;6.22;;
21894;SDS011;11112;51.270;7.224;2022-08-14T03:58:52;7.75;;;6.47;;
21894;SDS011;11112;51.270;7.224;2022-08-14T04:01:23;9.43;;;6.38;;
21894;SDS011;11112;51.270;7.224;2022-08-14T04:03:52;8.35;;;6.30;;
21894;SDS011;11112;51.270;7.224;2022-08-14T04:06:26;7.40;;;6.53;;
21894;SDS011;11112;51.270;7.224;2022-08-14T04:08:53;7.75;;;6.45;;
21894;SDS011;11112;51.270;7.224;2022-08-14T04:11:20;10.10;;;6.53;;
21894;SDS011;11112;51.270;7.224;2022-08-14T04:13:48;8.90;;;6.38;;
21894;SDS011;11112;51.270;7.224;2022-08-14T04:16:15;10.73;;;6.60;;
21894;SDS011;11112;51.270;7.224;2022-08-14T04:18:47;9.07;;;6.80;;
21894;SDS011;11112;51.270;7.224;2022-08-14T04:21:19;7.28;;;6.57;;
21894;SDS011;11112;51.270;7.224;2022-08-14T04:23:50;8.05;;;6.70;;
21894;SDS011;11112;51.270;7.224;2022-08-14T04:26:19;7.05;;;6.20;;
21894;SDS011;11112;51.270;7.224;2022-08-14T04:28:47;7.15;;;6.43;;
21894;SDS011;11112;51.270;7.224;2022-08-14T04:31:16;7.88;;;6.95;;
21894;SDS011;11112;51.270;7.224;2022-08-14T04:33:44;7.40;;;6.55;;
21894;SDS011;11112;51.270;7.224;2022-08-14T04:36:12;8.07;;;6.63;;
21894;SDS011;11112;51.270;7.224;2022-08-14T04:38:41;8.00;;;6.78;;
21894;SDS011;11112;51.270;7.224;2022-08-14T04:41:25;8.48;;;6.80;;
21894;SDS011;11112;51.270;7.224;2022-08-14T04:44:10;10.13;;;7.10;;
21894;SDS011;11112;51.270;7.224;2022-08-14T04:46:37;8.57;;;7.10;;
21894;SDS011;11112;51.270;7.224;2022-08-14T04:49:04;7.78;;;6.90;;
21894;SDS011;11112;51.270;7.224;2022-08-14T04:51:31;9.95;;;7.63;;
21894;SDS011;11112;51.270;7.224;2022-08-14T04:53:59;9.45;;;7.82;;
21894;SDS011;11112;51.270;7.224;2022-08-14T04:56:29;10.82;;;7.22;;
21894;SDS011;11112;51.270;7.224;2022-08-14T04:58:57;7.82;;;7.03;;
21894;SDS011;11112;51.270;7.224;2022-08-14T05:01:29;8.60;;;7.23;;
21894;SDS011;11112;51.270;7.224;2022-08-14T05:03:56;7.93;;;7.00;;
21894;SDS011;11112;51.270;7.224;2022-08-14T05:06:23;10.70;;;7.72;;
21894;SDS011;11112;51.270;7.224;2022-08-14T05:08:50;8.82;;;7.93;;
21894;SDS011;11112;51.270;7.224;2022-08-14T05:11:19;8.77;;;7.35;;
21894;SDS011;11112;51.270;7.224;2022-08-14T05:13:46;10.00;;;7.38;;
21894;SDS011;11112;51.270;7.224;2022-08-14T05:16:14;8.00;;;7.20;;
21894;SDS011;11112;51.270;7.224;2022-08-14T05:18:42;8.68;;;7.78;;
21894;SDS011;11112;51.270;7.224;2022-08-14T05:21:10;11.65;;;9.15;;
21894;SDS011;11112;51.270;7.224;2022-08-14T05:23:40;10.15;;;7.25;;
21894;SDS011;11112;51.270;7.224;2022-08-14T05:26:07;8.32;;;7.00;;
21894;SDS011;11112;51.270;7.224;2022-08-14T05:28:44;11.15;;;7.30;;
21894;SDS011;11112;51.270;7.224;2022-08-14T05:31:11;8.25;;;7.32;;
21894;SDS011;11112;51.270;7.224;2022-08-14T05:33:42;10.27;;;7.95;;
21894;SDS011;11112;51.270;7.224;2022-08-14T05:36:11;8.60;;;7.25;;
21894;SDS011;11112;51.270;7.224;2022-08-14T05:38:39;8.15;;;6.95;;
21894;SDS011;11112;51.270;7.224;2022-08-14T05:41:10;8.35;;;7.18;;
21894;SDS011;11112;51.270;7.224;2022-08-14T05:43:40;8.60;;;7.57;;
21894;SDS011;11112;51.270;7.224;2022-08-14T05:46:10;7.78;;;6.97;;
21894;SDS011;11112;51.270;7.224;2022-08-14T05:48:39;7.95;;;7.15;;
21894;SDS011;11112;51.270;7.224;2022-08-14T05:51:07;9.73;;;7.20;;
21894;SDS011;11112;51.270;7.224;2022-08-14T05:53:34;8.82;;;6.78;;
21894;SDS011;11112;51.270;7.224;2022-08-14T05:56:01;8.07;;;7.03;;
21894;SDS011;11112;51.270;7.224;2022-08-14T05:58:28;8.52;;;7.10;;
21894;SDS011;11112;51.270;7.224;2022-08-14T06:00:56;7.28;;;6.57;;
21894;SDS011;11112;51.270;7.224;2022-08-14T06:03:24;8.30;;;7.50;;
21894;SDS011;11112;51.270;7.224;2022-08-14T06:05:52;8.18;;;6.90;;
21894;SDS011;11112;51.270;7.224;2022-08-14T06:08:21;8.10;;;6.88;;
21894;SDS011;11112;51.270;7.224;2022-08-14T06:10:51;9.02;;;7.13;;
21894;SDS011;11112;51.270;7.224;2022-08-14T06:13:21;9.82;;;7.47;;
21894;SDS011;11112;51.270;7.224;2022-08-14T06:15:48;11.15;;;7.30;;
21894;SDS011;11112;51.270;7.224;2022-08-14T06:18:16;8.73;;;7.45;;
21894;SDS011;11112;51.270;7.224;2022-08-14T06:20:44;7.70;;;6.25;;
21894;SDS011;11112;51.270;7.224;2022-08-14T06:23:12;7.53;;;6.40;;
21894;SDS011;11112;51.270;7.224;2022-08-14T06:25:40;8.00;;;6.75;;
21894;SDS011;11112;51.270;7.224;2022-08-14T06:28:14;9.45;;;6.18;;
21894;SDS011;11112;51.270;7.224;2022-08-14T06:33:09;7.72;;;6.63;;
21894;SDS011;11112;51.270;7.224;2022-08-14T06:35:39;9.40;;;6.70;;
21894;SDS011;11112;51.270;7.224;2022-08-14T06:38:12;8.13;;;6.68;;
21894;SDS011;11112;51.270;7.224;2022-08-14T06:40:41;9.75;;;6.78;;
21894;SDS011;11112;51.270;7.224;2022-08-14T06:43:09;8.05;;;6.95;;
21894;SDS011;11112;51.270;7.224;2022-08-14T06:45:38;8.85;;;6.50;;
21894;SDS011;11112;51.270;7.224;2022-08-14T06:48:11;7.32;;;6.10;;
21894;SDS011;11112;51.270;7.224;2022-08-14T06:50:40;9.10;;;6.63;;
21894;SDS011;11112;51.270;7.224;2022-08-14T06:53:09;8.80;;;5.90;;
21894;SDS011;11112;51.270;7.224;2022-08-14T06:55:38;9.52;;;6.28;;
21894;SDS011;11112;51.270;7.224;2022-08-14T06:58:09;6.30;;;5.70;;
21894;SDS011;11112;51.270;7.224;2022-08-14T07:00:37;10.23;;;6.00;;
21894;SDS011;11112;51.270;7.224;2022-08-14T07:03:05;6.38;;;5.68;;
21894;SDS011;11112;51.270;7.224;2022-08-14T07:05:49;6.88;;;5.72;;
21894;SDS011;11112;51.270;7.224;2022-08-14T07:08:18;6.93;;;6.20;;
21894;SDS011;11112;51.270;7.224;2022-08-14T07:10:48;6.60;;;5.90;;
21894;SDS011;11112;51.270;7.224;2022-08-14T07:13:19;7.13;;;6.13;;
21894;SDS011;11112;51.270;7.224;2022-08-14T07:15:49;11.30;;;5.80;;
21894;SDS011;11112;51.270;7.224;2022-08-14T07:18:18;6.43;;;5.57;;
21894;SDS011;11112;51.270;7.224;2022-08-14T07:20:47;6.47;;;5.30;;
21894;SDS011;11112;51.270;7.224;2022-08-14T07:23:15;6.25;;;5.65;;
21894;SDS011;11112;51.270;7.224;2022-08-14T07:25:44;6.93;;;5.43;;
21894;SDS011;11112;51.270;7.224;2022-08-14T07:28:13;7.30;;;5.20;;
21894;SDS011;11112;51.270;7.224;2022-08-14T07:30:42;7.03;;;5.40;;
21894;SDS011;11112;51.270;7.224;2022-08-14T07:33:10;7.22;;;5.05;;
21894;SDS011;11112;51.270;7.224;2022-08-14T07:35:39;6.03;;;5.43;;
21894;SDS011;11112;51.270;7.224;2022-08-14T07:38:07;6.93;;;5.32;;
21894;SDS011;11112;51.270;7.224;2022-08-14T07:40:41;7.55;;;5.68;;
21894;SDS011;11112;51.270;7.224;2022-08-14T07:43:10;7.05;;;5.50;;
21894;SDS011;11112;51.270;7.224;2022-08-14T07:45:38;9.35;;;5.70;;
21894;SDS011;11112;51.270;7.224;2022-08-14T07:48:05;7.50;;;5.05;;
21894;SDS011;11112;51.270;7.224;2022-08-14T07:50:33;5.70;;;5.10;;
21894;SDS011;11112;51.270;7.224;2022-08-14T07:53:00;7.55;;;5.15;;
21894;SDS011;11112;51.270;7.224;2022-08-14T07:55:28;6.22;;;5.63;;
21894;SDS011;11112;51.270;7.224;2022-08-14T07:57:57;6.70;;;5.32;;
21894;SDS011;11112;51.270;7.224;2022-08-14T08:00:24;6.05;;;4.63;;
21894;SDS011;11112;51.270;7.224;2022-08-14T08:02:53;5.63;;;4.78;;
21894;SDS011;11112;51.270;7.224;2022-08-14T08:05:22;4.95;;;4.43;;
21894;SDS011;11112;51.270;7.224;2022-08-14T08:07:51;7.55;;;5.13;;
21894;SDS011;11112;51.270;7.224;2022-08-14T08:10:20;5.43;;;4.93;;
21894;SDS011;11112;51.270;7.224;2022-08-14T08:13:00;7.03;;;4.82;;
21894;SDS011;11112;51.270;7.224;2022-08-14T08:15:30;8.25;;;4.82;;
21894;SDS011;11112;51.270;7.224;2022-08-14T08:18:00;5.10;;;4.60;;
21894;SDS011;11112;51.270;7.224;2022-08-14T08:20:29;5.68;;;4.18;;
21894;SDS011;11112;51.270;7.224;2022-08-14T08:23:01;5.82;;;4.50;;
21894;SDS011;11112;51.270;7.224;2022-08-14T08:25:30;5.22;;;4.50;;
21894;SDS011;11112;51.270;7.224;2022-08-14T08:28:02;5.28;;;4.63;;
21894;SDS011;11112;51.270;7.224;2022-08-14T08:30:33;6.07;;;4.25;;
21894;SDS011;11112;51.270;7.224;2022-08-14T08:33:03;6.95;;;4.60;;
21894;SDS011;11112;51.270;7.224;2022-08-14T08:35:33;8.32;;;4.57;;
21894;SDS011;11112;51.270;7.224;2022-08-14T08:38:06;6.25;;;3.88;;
21894;SDS011;11112;51.270;7.224;2022-08-14T08:40:39;7.00;;;4.38;;
21894;SDS011;11112;51.270;7.224;2022-08-14T08:43:18;5.75;;;4.20;;
21894;SDS011;11112;51.270;7.224;2022-08-14T08:45:54;6.22;;;4.18;;
21894;SDS011;11112;51.270;7.224;2022-08-14T08:48:24;5.80;;;3.90;;
21894;SDS011;11112;51.270;7.224;2022-08-14T08:50:56;7.72;;;4.13;;
21894;SDS011;11112;51.270;7.224;2022-08-14T08:53:29;6.72;;;3.80;;
21894;SDS011;11112;51.270;7.224;2022-08-14T08:55:58;4.93;;;4.13;;
21894;SDS011;11112;51.270;7.224;2022-08-14T08:58:28;5.97;;;3.70;;
21894;SDS011;11112;51.270;7.224;2022-08-14T09:00:56;4.60;;;4.20;;
21894;SDS011;11112;51.270;7.224;2022-08-14T09:03:26;6.63;;;4.25;;
21894;SDS011;11112;51.270;7.224;2022-08-14T09:05:57;5.10;;;3.97;;
21894;SDS011;11112;51.270;7.224;2022-08-14T09:08:28;6.00;;;3.60;;
21894;SDS011;11112;51.270;7.224;2022-08-14T09:11:02;4.85;;;3.78;;
21894;SDS011;11112;51.270;7.224;2022-08-14T09:13:35;5.72;;;4.00;;
21894;SDS011;11112;51.270;7.224;2022-08-14T09:16:05;5.57;;;3.65;;
21894;SDS011;11112;51.270;7.224;2022-08-14T09:18:33;4.35;;;3.67;;
21894;SDS011;11112;51.270;7.224;2022-08-14T09:21:01;4.75;;;3.50;;
21894;SDS011;11112;51.270;7.224;2022-08-14T09:23:28;5.30;;;3.40;;
21894;SDS011;11112;51.270;7.224;2022-08-14T09:25:57;3.58;;;3.25;;
21894;SDS011;11112;51.270;7.224;2022-08-14T09:28:24;4.72;;;4.03;;
21894;SDS011;11112;51.270;7.224;2022-08-14T09:30:53;6.00;;;3.65;;
21894;SDS011;11112;51.270;7.224;2022-08-14T09:33:28;4.93;;;3.80;;
21894;SDS011;11112;51.270;7.224;2022-08-14T09:39:30;5.32;;;3.58;;
21894;SDS011;11112;51.270;7.224;2022-08-14T09:42:15;7.28;;;4.03;;
21894;SDS011;11112;51.270;7.224;2022-08-14T09:45:03;4.55;;;3.78;;
21894;SDS011;11112;51.270;7.224;2022-08-14T09:47:42;6.68;;;3.75;;
21894;SDS011;11112;51.270;7.224;2022-08-14T09:50:17;4.25;;;3.70;;
21894;SDS011;11112;51.270;7.224;2022-08-14T09:52:48;4.90;;;3.47;;
21894;SDS011;11112;51.270;7.224;2022-08-14T09:55:19;5.18;;;3.70;;
21894;SDS011;11112;51.270;7.224;2022-08-14T09:57:48;4.30;;;3.45;;
21894;SDS011;11112;51.270;7.224;2022-08-14T10:00:18;5.18;;;3.65;;
21894;SDS011;11112;51.270;7.224;2022-08-14T10:03:06;4.38;;;3.60;;
21894;SDS011;11112;51.270;7.224;2022-08-14T10:05:34;4.15;;;3.55;;
21894;SDS011;11112;51.270;7.224;2022-08-14T10:08:03;6.20;;;3.65;;
21894;SDS011;11112;51.270;7.224;2022-08-14T10:10:42;5.57;;;3.92;;
21894;SDS011;11112;51.270;7.224;2022-08-14T10:13:19;4.78;;;3.70;;
21894;SDS011;11112;51.270;7.224;2022-08-14T10:15:48;4.85;;;3.47;;
21894;SDS011;11112;51.270;7.224;2022-08-14T10:18:17;3.83;;;3.42;;
21894;SDS011;11112;51.270;7.224;2022-08-14T10:20:51;4.32;;;3.50;;
21894;SDS011;11112;51.270;7.224;2022-08-14T10:23:23;7.75;;;3.55;;
21894;SDS011;11112;51.270;7.224;2022-08-14T10:25:56;4.43;;;3.75;;
21894;SDS011;11112;51.270;7.224;2022-08-14T10:28:37;3.85;;;3.40;;
21894;SDS011;11112;51.270;7.224;2022-08-14T10:31:17;4.10;;;3.42;;
21894;SDS011;11112;51.270;7.224;2022-08-14T10:33:59;4.35;;;3.05;;
21894;SDS011;11112;51.270;7.224;2022-08-14T10:36:30;4.15;;;3.30;;
21894;SDS011;11112;51.270;7.224;2022-08-14T10:39:00;5.85;;;3.10;;
21894;SDS011;11112;51.270;7.224;2022-08-14T10:41:36;5.88;;;3.20;;
21894;SDS011;11112;51.270;7.224;2022-08-14T10:44:06;7.35;;;3.25;;
21894;SDS011;11112;51.270;7.224;2022-08-14T10:46:40;4.10;;;3.00;;
21894;SDS011;11112;51.270;7.224;2022-08-14T10:49:18;4.03;;;3.47;;
21894;SDS011;11112;51.270;7.224;2022-08-14T10:51:54;4.03;;;3.17;;
21894;SDS011;11112;51.270;7.224;2022-08-14T10:54:29;5.63;;;3.20;;
21894;SDS011;11112;51.270;7.224;2022-08-14T10:57:13;3.45;;;3.15;;
21894;SDS011;11112;51.270;7.224;2022-08-14T10:59:48;4.95;;;2.90;;
21894;SDS011;11112;51.270;7.224;2022-08-14T11:02:20;3.90;;;3.20;;
21894;SDS011;11112;51.270;7.224;2022-08-14T11:07:53;4.78;;;3.30;;
21894;SDS011;11112;51.270;7.224;2022-08-14T11:10:26;4.85;;;3.30;;
21894;SDS011;11112;51.270;7.224;2022-08-14T11:13:07;3.90;;;3.25;;
21894;SDS011;11112;51.270;7.224;2022-08-14T11:15:45;3.78;;;3.10;;
21894;SDS011;11112;51.270;7.224;2022-08-14T11:18:13;3.08;;;2.78;;
21894;SDS011;11112;51.270;7.224;2022-08-14T11:20:45;3.65;;;3.20;;
21894;SDS011;11112;51.270;7.224;2022-08-14T11:23:19;4.05;;;3.20;;
21894;SDS011;11112;51.270;7.224;2022-08-14T11:25:48;3.55;;;3.20;;
21894;SDS011;11112;51.270;7.224;2022-08-14T11:28:16;4.60;;;3.20;;
21894;SDS011;11112;51.270;7.224;2022-08-14T11:30:49;3.38;;;3.03;;
21894;SDS011;11112;51.270;7.224;2022-08-14T11:33:20;4.72;;;3.58;;
21894;SDS011;11112;51.270;7.224;2022-08-14T11:35:56;5.95;;;3.80;;
21894;SDS011;11112;51.270;7.224;2022-08-14T11:38:26;5.40;;;4.38;;
21894;SDS011;11112;51.270;7.224;2022-08-14T11:40:55;4.65;;;3.92;;
21894;SDS011;11112;51.270;7.224;2022-08-14T11:43:23;6.07;;;4.30;;
21894;SDS011;11112;51.270;7.224;2022-08-14T11:45:50;4.43;;;4.03;;
21894;SDS011;11112;51.270;7.224;2022-08-14T11:48:18;4.97;;;4.20;;
21894;SDS011;11112;51.270;7.224;2022-08-14T11:50:48;4.78;;;4.10;;
21894;SDS011;11112;51.270;7.224;2022-08-14T11:53:21;5.30;;;4.25;;
21894;SDS011;11112;51.270;7.224;2022-08-14T11:55:55;5.20;;;4.28;;
21894;SDS011;11112;51.270;7.224;2022-08-14T11:58:25;5.00;;;4.03;;
21894;SDS011;11112;51.270;7.224;2022-08-14T12:00:57;4.65;;;4.18;;
21894;SDS011;11112;51.270;7.224;2022-08-14T12:03:36;5.13;;;4.60;;
21894;SDS011;11112;51.270;7.224;2022-08-14T12:06:06;6.45;;;4.63;;
21894;SDS011;11112;51.270;7.224;2022-08-14T12:08:37;4.93;;;4.15;;
21894;SDS011;11112;51.270;7.224;2022-08-14T12:11:05;5.30;;;4.18;;
21894;SDS011;11112;51.270;7.224;2022-08-14T12:13:36;6.75;;;4.20;;
21894;SDS011;11112;51.270;7.224;2022-08-14T12:16:04;7.25;;;4.25;;
21894;SDS011;11112;51.270;7.224;2022-08-14T12:18:35;5.60;;;5.10;;
21894;SDS011;11112;51.270;7.224;2022-08-14T12:21:11;5.63;;;4.80;;
21894;SDS011;11112;51.270;7.224;2022-08-14T12:23:43;10.02;;;8.60;;
21894;SDS011;11112;51.270;7.224;2022-08-14T12:26:12;6.65;;;5.40;;
21894;SDS011;11112;51.270;7.224;2022-08-14T12:28:42;4.30;;;3.90;;
21894;SDS011;11112;51.270;7.224;2022-08-14T12:31:12;7.25;;;5.55;;
21894;SDS011;11112;51.270;7.224;2022-08-14T12:33:54;4.90;;;4.40;;
21894;SDS011;11112;51.270;7.224;2022-08-14T12:36:23;5.93;;;3.90;;
21894;SDS011;11112;51.270;7.224;2022-08-14T12:38:56;7.20;;;5.72;;
21894;SDS011;11112;51.270;7.224;2022-08-14T12:41:24;7.18;;;4.72;;
21894;SDS011;11112;51.270;7.224;2022-08-14T12:43:55;6.63;;;4.60;;
21894;SDS011;11112;51.270;7.224;2022-08-14T12:46:26;4.43;;;3.95;;
21894;SDS011;11112;51.270;7.224;2022-08-14T12:48:56;5.60;;;5.00;;
21894;SDS011;11112;51.270;7.224;2022-08-14T12:51:29;6.53;;;4.72;;
21894;SDS011;11112;51.270;7.224;2022-08-14T12:53:59;4.75;;;3.80;;
21894;SDS011;11112;51.270;7.224;2022-08-14T12:56:38;4.95;;;3.65;;
21894;SDS011;11112;51.270;7.224;2022-08-14T12:59:06;4.25;;;3.72;;
21894;SDS011;11112;51.270;7.224;2022-08-14T13:01:34;5.82;;;3.55;;
21894;SDS011;11112;51.270;7.224;2022-08-14T13:04:03;3.85;;;3.45;;
21894;SDS011;11112;51.270;7.224;2022-08-14T13:06:33;3.55;;;3.25;;
21894;SDS011;11112;51.270;7.224;2022-08-14T13:09:03;6.65;;;4.10;;
21894;SDS011;11112;51.270;7.224;2022-08-14T13:11:34;6.15;;;3.42;;
21894;SDS011;11112;51.270;7.224;2022-08-14T13:14:05;4.40;;;3.38;;
21894;SDS011;11112;51.270;7.224;2022-08-14T13:16:32;5.78;;;3.75;;
21894;SDS011;11112;51.270;7.224;2022-08-14T13:19:01;4.20;;;3.80;;
21894;SDS011;11112;51.270;7.224;2022-08-14T13:21:28;6.70;;;3.80;;
21894;SDS011;11112;51.270;7.224;2022-08-14T13:23:56;4.00;;;3.60;;
21894;SDS011;11112;51.270;7.224;2022-08-14T13:26:26;3.65;;;3.35;;
21894;SDS011;11112;51.270;7.224;2022-08-14T13:28:55;6.07;;;3.88;;
21894;SDS011;11112;51.270;7.224;2022-08-14T13:31:28;4.53;;;3.70;;
21894;SDS011;11112;51.270;7.224;2022-08-14T13:33:59;5.07;;;3.65;;
21894;SDS011;11112;51.270;7.224;2022-08-14T13:36:27;5.07;;;3.70;;
21894;SDS011;11112;51.270;7.224;2022-08-14T13:38:59;4.38;;;3.90;;
21894;SDS011;11112;51.270;7.224;2022-08-14T13:41:27;5.13;;;3.95;;
21894;SDS011;11112;51.270;7.224;2022-08-14T13:43:57;5.53;;;4.10;;
21894;SDS011;11112;51.270;7.224;2022-08-14T13:46:25;6.15;;;3.30;;
21894;SDS011;11112;51.270;7.224;2022-08-14T13:48:52;4.82;;;3.72;;
21894;SDS011;11112;51.270;7.224;2022-08-14T13:51:21;3.90;;;3.50;;
21894;SDS011;11112;51.270;7.224;2022-08-14T13:53:51;5.68;;;3.72;;
21894;SDS011;11112;51.270;7.224;2022-08-14T13:56:23;5.20;;;3.88;;
21894;SDS011;11112;51.270;7.224;2022-08-14T14:01:25;5.00;;;3.10;;
21894;SDS011;11112;51.270;7.224;2022-08-14T14:03:54;4.95;;;3.17;;
21894;SDS011;11112;51.270;7.224;2022-08-14T14:06:35;4.53;;;2.97;;
21894;SDS011;11112;51.270;7.224;2022-08-14T14:09:02;3.45;;;2.88;;
21894;SDS011;11112;51.270;7.224;2022-08-14T14:11:33;4.93;;;3.22;;
21894;SDS011;11112;51.270;7.224;2022-08-14T14:14:03;4.25;;;2.92;;
21894;SDS011;11112;51.270;7.224;2022-08-14T14:16:44;3.60;;;3.13;;
21894;SDS011;11112;51.270;7.224;2022-08-14T14:19:12;3.40;;;3.10;;
21894;SDS011;11112;51.270;7.224;2022-08-14T14:21:44;4.25;;;3.10;;
21894;SDS011;11112;51.270;7.224;2022-08-14T14:24:14;4.35;;;2.90;;
21894;SDS011;11112;51.270;7.224;2022-08-14T14:26:46;3.50;;;3.20;;
21894;SDS011;11112;51.270;7.224;2022-08-14T14:29:15;4.43;;;3.40;;
21894;SDS011;11112;51.270;7.224;2022-08-14T14:31:44;6.38;;;4.45;;
21894;SDS011;11112;51.270;7.224;2022-08-14T14:34:13;4.88;;;3.90;;
21894;SDS011;11112;51.270;7.224;2022-08-14T14:36:43;4.13;;;3.72;;
21894;SDS011;11112;51.270;7.224;2022-08-14T14:39:12;4.03;;;3.60;;
21894;SDS011;11112;51.270;7.224;2022-08-14T14:41:41;3.60;;;3.30;;
21894;SDS011;11112;51.270;7.224;2022-08-14T14:44:16;4.07;;;3.67;;
21894;SDS011;11112;51.270;7.224;2022-08-14T14:46:50;4.88;;;3.90;;
21894;SDS011;11112;51.270;7.224;2022-08-14T14:49:17;4.10;;;3.70;;
21894;SDS011;11112;51.270;7.224;2022-08-14T14:51:48;5.65;;;4.65;;
21894;SDS011;11112;51.270;7.224;2022-08-14T14:54:16;6.07;;;4.93;;
21894;SDS011;11112;51.270;7.224;2022-08-14T14:56:46;5.55;;;4.70;;
21894;SDS011;11112;51.270;7.224;2022-08-14T14:59:14;3.50;;;3.20;;
21894;SDS011;11112;51.270;7.224;2022-08-14T15:01:43;5.07;;;2.95;;
21894;SDS011;11112;51.270;7.224;2022-08-14T15:04:14;3.50;;;3.20;;
21894;SDS011;11112;51.270;7.224;2022-08-14T15:06:42;4.10;;;2.80;;
21894;SDS011;11112;51.270;7.224;2022-08-14T15:09:10;3.72;;;3.33;;
21894;SDS011;11112;51.270;7.224;2022-08-14T15:11:37;4.13;;;2.63;;
21894;SDS011;11112;51.270;7.224;2022-08-14T15:14:04;3.83;;;2.50;;
21894;SDS011;11112;51.270;7.224;2022-08-14T15:16:32;3.22;;;2.83;;
21894;SDS011;11112;51.270;7.224;2022-08-14T15:18:59;3.72;;;2.90;;